createdAt,value
2018-08-28T00:01:55.473Z,83.60
2018-08-28T00:04:24.090Z,83.20
2018-08-28T00:06:53.151Z,82.60
2018-08-28T00:09:21.588Z,82.40
2018-08-28T00:11:50.031Z,82.90
2018-08-28T00:14:18.537Z,83.20
2018-08-28T00:16:46.982Z,83.40
2018-08-28T00:19:16.081Z,83.10
2018-08-28T00:21:44.863Z,83.40
2018-08-28T00:24:14.593Z,83.70
2018-08-28T00:26:42.980Z,83.60
2018-08-28T00:29:11.346Z,83.20
2018-08-28T00:31:40.112Z,83.60
2018-08-28T00:34:08.747Z,84.00
2018-08-28T00:36:37.559Z,84.30
2018-08-28T00:39:06.254Z,84.50
2018-08-28T00:41:34.686Z,85.70
2018-08-28T00:44:03.191Z,85.10
2018-08-28T00:46:31.783Z,85.30
2018-08-28T00:49:00.128Z,85.40
2018-08-28T00:51:29.647Z,85.20
2018-08-28T00:53:58.370Z,85.10
2018-08-28T00:56:27.050Z,85.20
2018-08-28T00:58:55.823Z,85.40
2018-08-28T01:01:24.234Z,85.50
2018-08-28T01:03:52.667Z,85.70
2018-08-28T01:06:21.125Z,85.80
2018-08-28T01:08:49.522Z,85.70
2018-08-28T01:11:17.985Z,85.30
2018-08-28T01:13:46.662Z,86.00
2018-08-28T01:16:15.791Z,85.40
2018-08-28T01:18:44.405Z,85.80
2018-08-28T01:21:14.027Z,85.80
2018-08-28T01:23:42.559Z,86.70
2018-08-28T01:26:13.123Z,86.00
2018-08-28T01:28:41.469Z,85.70
2018-08-28T01:31:10.054Z,86.10
2018-08-28T01:33:38.474Z,85.80
2018-08-28T01:36:07.075Z,85.70
2018-08-28T01:38:35.467Z,85.60
2018-08-28T01:41:03.895Z,86.00
2018-08-28T01:43:32.965Z,86.20
2018-08-28T01:46:01.389Z,86.50
2018-08-28T01:48:30.066Z,86.60
2018-08-28T01:50:58.474Z,87.00
2018-08-28T01:53:27.022Z,87.00
2018-08-28T01:55:55.462Z,87.00
2018-08-28T01:58:23.915Z,86.90
2018-08-28T02:00:52.338Z,87.20
2018-08-28T02:03:20.919Z,86.90
2018-08-28T02:05:49.286Z,87.20
2018-08-28T02:08:18.273Z,86.80
2018-08-28T02:10:46.874Z,86.90
2018-08-28T02:13:15.878Z,87.00
2018-08-28T02:15:44.306Z,87.10
2018-08-28T02:18:12.781Z,86.90
2018-08-28T02:20:41.422Z,86.80
2018-08-28T02:23:10.189Z,86.50
2018-08-28T02:25:38.592Z,86.60
2018-08-28T02:28:07.038Z,86.60
2018-08-28T02:30:35.883Z,86.50
2018-08-28T02:33:04.309Z,86.50
2018-08-28T02:35:32.748Z,86.70
2018-08-28T02:38:01.266Z,86.90
2018-08-28T02:40:29.666Z,86.70
2018-08-28T02:42:58.256Z,86.50
2018-08-28T02:45:27.683Z,86.30
2018-08-28T02:47:56.306Z,86.00
2018-08-28T02:50:24.656Z,85.70
2018-08-28T02:52:53.199Z,86.70
2018-08-28T02:55:21.544Z,86.40
2018-08-28T02:57:49.993Z,87.60
2018-08-28T03:00:18.771Z,87.60
2018-08-28T03:02:47.432Z,87.00
2018-08-28T03:05:15.886Z,88.00
2018-08-28T03:07:44.471Z,87.60
2018-08-28T03:10:13.569Z,87.60
2018-08-28T03:12:42.050Z,87.40
2018-08-28T03:15:10.683Z,88.10
2018-08-28T03:17:39.055Z,88.20
2018-08-28T03:20:07.771Z,88.50
2018-08-28T03:22:36.385Z,88.50
2018-08-28T03:25:05.006Z,88.60
2018-08-28T03:27:33.541Z,88.80
2018-08-28T03:30:02.027Z,89.00
2018-08-28T03:32:30.526Z,89.30
2018-08-28T03:34:58.972Z,89.40
2018-08-28T03:37:28.272Z,89.20
2018-08-28T03:39:56.728Z,89.20
2018-08-28T03:42:25.235Z,89.40
2018-08-28T03:44:53.767Z,89.60
2018-08-28T03:47:22.398Z,89.80
2018-08-28T03:49:50.779Z,89.90
2018-08-28T03:52:19.195Z,90.10
2018-08-28T03:54:47.598Z,90.20
2018-08-28T03:57:15.949Z,90.20
2018-08-28T03:59:44.392Z,90.40
2018-08-28T04:02:13.627Z,90.60
2018-08-28T04:04:42.186Z,90.80
2018-08-28T04:07:10.576Z,91.00
2018-08-28T04:09:38.936Z,91.00
2018-08-28T04:12:07.806Z,91.10
2018-08-28T04:14:36.207Z,91.40
2018-08-28T04:17:05.058Z,91.20
2018-08-28T04:19:33.466Z,91.40
2018-08-28T04:22:01.970Z,91.50
2018-08-28T04:24:30.627Z,91.50
2018-08-28T04:26:59.039Z,91.60
2018-08-28T04:29:27.662Z,91.70
2018-08-28T04:31:56.287Z,92.10
2018-08-28T04:34:24.956Z,92.30
2018-08-28T04:36:53.371Z,92.50
2018-08-28T04:39:21.818Z,92.80
2018-08-28T04:41:50.440Z,92.60
2018-08-28T04:44:19.015Z,92.80
2018-08-28T04:46:47.849Z,93.00
2018-08-28T04:49:16.335Z,93.10
2018-08-28T04:51:44.989Z,93.20
2018-08-28T04:54:13.581Z,93.20
2018-08-28T04:56:41.922Z,93.30
2018-08-28T04:59:10.428Z,93.10
2018-08-28T05:01:38.880Z,93.20
2018-08-28T05:04:08.080Z,92.60
2018-08-28T05:06:36.869Z,92.30
2018-08-28T05:09:06.840Z,92.20
2018-08-28T05:11:36.654Z,92.10
2018-08-28T05:14:05.101Z,91.80
2018-08-28T05:16:33.510Z,91.70
2018-08-28T05:19:01.923Z,91.30
2018-08-28T05:21:30.984Z,91.20
2018-08-28T05:23:59.408Z,91.10
2018-08-28T05:26:27.952Z,90.60
2018-08-28T05:28:56.342Z,90.40
2018-08-28T05:31:25.002Z,90.20
2018-08-28T05:33:53.343Z,89.80
2018-08-28T05:36:21.703Z,89.10
2018-08-28T05:38:50.448Z,88.10
2018-08-28T05:41:18.862Z,87.70
2018-08-28T05:43:47.698Z,87.40
2018-08-28T05:46:16.337Z,87.30
2018-08-28T05:48:45.788Z,86.80
2018-08-28T05:51:14.366Z,85.70
2018-08-28T05:53:42.943Z,84.10
2018-08-28T05:56:11.407Z,80.70
2018-08-28T05:58:39.893Z,76.30
2018-08-28T06:01:08.997Z,72.70
2018-08-28T06:03:37.716Z,69.90
2018-08-28T06:06:06.434Z,68.00
2018-08-28T06:08:35.461Z,65.70
2018-08-28T06:11:03.883Z,64.60
2018-08-28T06:13:33.426Z,64.50
2018-08-28T06:16:02.763Z,63.80
2018-08-28T06:18:31.135Z,61.40
2018-08-28T06:20:59.531Z,59.30
2018-08-28T06:23:27.950Z,57.80
2018-08-28T06:25:56.380Z,57.20
2018-08-28T06:28:25.000Z,55.50
2018-08-28T06:30:53.377Z,54.60
2018-08-28T06:33:21.778Z,53.40
2018-08-28T06:35:50.540Z,52.80
2018-08-28T06:38:18.934Z,52.00
2018-08-28T06:40:47.718Z,53.50
2018-08-28T06:43:16.330Z,55.10
2018-08-28T06:45:45.069Z,53.30
2018-08-28T06:48:13.413Z,53.70
2018-08-28T06:50:41.879Z,54.30
2018-08-28T06:53:10.729Z,55.70
2018-08-28T06:55:39.292Z,54.00
2018-08-28T06:58:08.329Z,54.30
2018-08-28T07:00:38.190Z,52.60
2018-08-28T07:03:06.723Z,53.80
2018-08-28T07:05:35.453Z,52.70
2018-08-28T07:08:03.953Z,51.30
2018-08-28T07:10:32.568Z,50.50
2018-08-28T07:13:01.358Z,50.60
2018-08-28T07:15:29.804Z,50.40
2018-08-28T07:17:58.232Z,49.30
2018-08-28T07:20:27.161Z,49.80
2018-08-28T07:22:55.823Z,51.70
2018-08-28T07:25:24.521Z,49.90
2018-08-28T07:27:53.025Z,48.30
2018-08-28T07:30:21.658Z,50.70
2018-08-28T07:32:50.038Z,50.10
2018-08-28T07:35:18.515Z,48.30
2018-08-28T07:37:46.987Z,46.40
2018-08-28T07:40:16.339Z,46.50
2018-08-28T07:42:45.019Z,46.50
2018-08-28T07:45:13.428Z,46.80
2018-08-28T07:47:41.894Z,51.90
2018-08-28T07:50:11.638Z,54.30
2018-08-28T07:52:40.016Z,51.70
2018-08-28T07:55:09.172Z,52.30
2018-08-28T07:57:37.801Z,50.80
2018-08-28T08:00:07.404Z,54.40
2018-08-28T08:02:36.521Z,57.10
2018-08-28T08:05:05.079Z,59.10
2018-08-28T08:07:33.461Z,58.70
2018-08-28T08:10:01.837Z,55.70
2018-08-28T08:12:30.326Z,54.50
2018-08-28T08:14:58.724Z,54.90
2018-08-28T08:17:28.927Z,51.60
2018-08-28T08:19:58.975Z,50.80
2018-08-28T08:22:27.596Z,52.60
2018-08-28T08:24:56.366Z,51.30
2018-08-28T08:27:25.012Z,50.70
2018-08-28T08:29:54.296Z,50.30
2018-08-28T08:32:22.683Z,50.60
2018-08-28T08:34:51.177Z,50.00
2018-08-28T08:37:19.553Z,50.20
2018-08-28T08:39:48.159Z,50.70
2018-08-28T08:42:16.770Z,51.70
2018-08-28T08:44:45.469Z,49.80
2018-08-28T08:47:13.839Z,50.50
2018-08-28T08:49:42.207Z,50.20
2018-08-28T08:52:10.772Z,50.40
2018-08-28T08:54:39.367Z,51.00
2018-08-28T08:57:08.680Z,50.00
2018-08-28T08:59:37.327Z,49.40
2018-08-28T09:02:05.890Z,51.40
2018-08-28T09:04:34.333Z,51.30
2018-08-28T09:07:02.897Z,53.30
2018-08-28T09:09:31.498Z,54.10
2018-08-28T09:12:00.436Z,54.40
2018-08-28T09:14:29.208Z,53.60
2018-08-28T09:16:57.989Z,55.50
2018-08-28T09:19:27.405Z,56.70
2018-08-28T09:21:56.016Z,58.50
2018-08-28T09:24:24.596Z,57.40
2018-08-28T09:26:53.071Z,58.30
2018-08-28T09:29:21.638Z,59.50
2018-08-28T09:31:50.053Z,57.50
2018-08-28T09:34:18.628Z,56.30
2018-08-28T09:36:47.532Z,55.70
2018-08-28T09:39:16.282Z,56.00
2018-08-28T09:41:45.010Z,56.30
2018-08-28T09:44:13.471Z,56.50
2018-08-28T09:46:42.268Z,58.20
2018-08-28T09:49:10.791Z,57.60
2018-08-28T09:51:39.384Z,55.00
2018-08-28T09:54:08.803Z,54.00
2018-08-28T09:56:37.689Z,53.00
2018-08-28T09:59:06.298Z,52.60
2018-08-28T10:01:46.884Z,52.10
2018-08-28T10:04:17.369Z,51.20
2018-08-28T10:06:47.390Z,50.40
2018-08-28T10:09:18.563Z,50.50
2018-08-28T10:11:48.165Z,50.60
2018-08-28T10:14:17.842Z,50.10
2018-08-28T10:16:47.371Z,48.50
2018-08-28T10:19:16.103Z,49.50
2018-08-28T10:21:44.493Z,48.60
2018-08-28T10:24:12.994Z,48.70
2018-08-28T10:26:41.358Z,49.10
2018-08-28T10:29:10.599Z,48.60
2018-08-28T10:31:38.979Z,48.90
2018-08-28T10:34:08.319Z,48.50
2018-08-28T10:36:37.019Z,48.90
2018-08-28T10:39:07.992Z,48.30
2018-08-28T10:41:36.723Z,48.60
2018-08-28T10:44:05.474Z,48.80
2018-08-28T10:46:33.936Z,48.40
2018-08-28T10:49:02.844Z,49.30
2018-08-28T10:51:31.571Z,50.80
2018-08-28T10:53:59.990Z,49.70
2018-08-28T10:56:28.537Z,51.20
2018-08-28T10:58:57.252Z,52.50
2018-08-28T11:01:25.850Z,51.90
2018-08-28T11:03:54.231Z,52.70
2018-08-28T11:06:22.835Z,52.50
2018-08-28T11:08:51.659Z,52.30
2018-08-28T11:11:20.864Z,52.90
2018-08-28T11:13:49.218Z,53.70
2018-08-28T11:16:17.714Z,53.60
2018-08-28T11:18:46.303Z,53.70
2018-08-28T11:21:14.994Z,54.00
2018-08-28T11:23:43.712Z,52.70
2018-08-28T11:26:12.255Z,53.40
2018-08-28T11:28:40.605Z,53.10
2018-08-28T11:31:09.552Z,53.10
2018-08-28T11:33:38.277Z,53.10
2018-08-28T11:36:07.831Z,52.10
2018-08-28T11:38:36.421Z,52.00
2018-08-28T11:41:04.983Z,51.50
2018-08-28T11:43:33.358Z,51.20
2018-08-28T11:46:01.754Z,51.20
2018-08-28T11:48:30.148Z,51.60
2018-08-28T11:50:58.519Z,51.00
2018-08-28T11:53:27.005Z,51.20
2018-08-28T11:55:55.555Z,50.80
2018-08-28T11:58:23.999Z,51.50
2018-08-28T12:00:52.535Z,51.60
2018-08-28T12:03:20.960Z,51.50
2018-08-28T12:05:49.507Z,51.40
2018-08-28T12:08:17.967Z,50.20
2018-08-28T12:10:46.645Z,50.70
2018-08-28T12:13:15.396Z,52.00
2018-08-28T12:15:44.402Z,52.20
2018-08-28T12:18:12.848Z,51.40
2018-08-28T12:20:41.296Z,51.30
2018-08-28T12:23:10.443Z,51.00
2018-08-28T12:25:38.856Z,52.10
2018-08-28T12:28:07.501Z,52.40
2018-08-28T12:30:36.357Z,52.70
2018-08-28T12:33:04.995Z,51.70
2018-08-28T12:35:33.486Z,51.80
2018-08-28T12:38:01.868Z,50.90
2018-08-28T12:40:30.255Z,52.20
2018-08-28T12:42:59.991Z,50.50
2018-08-28T12:45:28.499Z,51.40
2018-08-28T12:47:57.048Z,50.80
2018-08-28T12:50:25.878Z,51.00
2018-08-28T12:52:54.318Z,50.30
2018-08-28T12:55:22.819Z,49.30
2018-08-28T12:57:51.596Z,49.50
2018-08-28T13:00:20.779Z,49.80
2018-08-28T13:02:49.391Z,49.40
2018-08-28T13:05:17.935Z,50.20
2018-08-28T13:07:46.683Z,50.70
2018-08-28T13:10:15.111Z,50.60
2018-08-28T13:12:43.623Z,49.90
2018-08-28T13:15:12.925Z,48.90
2018-08-28T13:17:41.378Z,48.90
2018-08-28T13:20:11.094Z,49.10
2018-08-28T13:22:39.492Z,49.10
2018-08-28T13:25:09.726Z,50.60
2018-08-28T13:27:39.074Z,51.40
2018-08-28T13:30:09.154Z,51.60
2018-08-28T13:32:38.006Z,50.90
2018-08-28T13:35:06.807Z,50.40
2018-08-28T13:37:35.962Z,50.60
2018-08-28T13:40:05.475Z,50.00
2018-08-28T13:42:33.872Z,49.50
2018-08-28T13:45:02.311Z,49.20
2018-08-28T13:47:30.747Z,48.50
2018-08-28T13:49:59.132Z,47.30
2018-08-28T13:52:27.681Z,47.00
2018-08-28T13:54:56.083Z,46.30
2018-08-28T13:57:24.486Z,46.70
2018-08-28T13:59:52.999Z,46.40
2018-08-28T14:02:21.360Z,46.80
2018-08-28T14:04:49.951Z,47.30
2018-08-28T14:07:18.319Z,47.70
2018-08-28T14:09:47.023Z,47.90
2018-08-28T14:12:15.759Z,49.70
2018-08-28T14:14:44.581Z,48.30
2018-08-28T14:17:13.135Z,48.40
2018-08-28T14:19:41.599Z,48.60
2018-08-28T14:22:10.287Z,48.80
2018-08-28T14:24:38.701Z,48.00
2018-08-28T14:27:07.906Z,48.40
2018-08-28T14:29:36.959Z,48.00
2018-08-28T14:32:06.803Z,48.10
2018-08-28T14:34:35.466Z,47.30
2018-08-28T14:37:04.112Z,47.80
2018-08-28T14:39:33.494Z,47.90
2018-08-28T14:42:01.851Z,47.60
2018-08-28T14:44:30.279Z,47.40
2018-08-28T14:46:58.680Z,47.70
2018-08-28T14:49:27.648Z,47.10
2018-08-28T14:51:56.327Z,47.70
2018-08-28T14:54:24.833Z,47.20
2018-08-28T14:56:53.328Z,47.50
2018-08-28T14:59:21.792Z,47.90
2018-08-28T15:01:50.271Z,47.80
2018-08-28T15:04:18.859Z,48.20
2018-08-28T15:06:47.468Z,47.00
2018-08-28T15:09:15.919Z,47.40
2018-08-28T15:11:44.370Z,47.70
2018-08-28T15:14:12.747Z,48.30
2018-08-28T15:16:41.519Z,48.20
2018-08-28T15:19:11.040Z,47.90
2018-08-28T15:21:39.468Z,46.90
2018-08-28T15:24:08.628Z,47.10
2018-08-28T15:26:37.345Z,47.00
2018-08-28T15:29:05.982Z,46.70
2018-08-28T15:31:34.408Z,47.50
2018-08-28T15:34:03.338Z,47.30
2018-08-28T15:36:31.813Z,46.80
2018-08-28T15:39:00.172Z,47.30
2018-08-28T15:41:28.742Z,46.70
2018-08-28T15:43:57.565Z,46.60
2018-08-28T15:46:26.070Z,47.30
2018-08-28T15:48:54.427Z,48.10
2018-08-28T15:51:23.002Z,47.20
2018-08-28T15:53:51.371Z,46.90
2018-08-28T15:56:19.821Z,47.40
2018-08-28T15:58:48.184Z,47.20
2018-08-28T16:01:16.806Z,47.40
2018-08-28T16:03:45.509Z,48.20
2018-08-28T16:06:13.994Z,47.50
2018-08-28T16:08:42.569Z,46.80
2018-08-28T16:11:11.188Z,48.00
2018-08-28T16:13:39.553Z,48.30
2018-08-28T16:16:08.937Z,47.60
2018-08-28T16:18:37.787Z,47.40
2018-08-28T16:21:06.369Z,46.90
2018-08-28T16:23:37.828Z,47.80
2018-08-28T16:26:07.073Z,46.90
2018-08-28T16:28:35.845Z,47.90
2018-08-28T16:31:04.238Z,47.60
2018-08-28T16:33:33.754Z,47.10
2018-08-28T16:36:02.293Z,47.60
2018-08-28T16:38:30.696Z,47.60
2018-08-28T16:40:59.205Z,47.60
2018-08-28T16:43:28.727Z,47.90
2018-08-28T16:45:57.515Z,48.10
2018-08-28T16:48:25.902Z,49.40
2018-08-28T16:50:55.123Z,47.80
2018-08-28T16:53:23.640Z,47.80
2018-08-28T16:55:52.091Z,47.90
2018-08-28T16:58:23.293Z,48.10
2018-08-28T17:00:51.928Z,48.30
2018-08-28T17:03:20.313Z,48.80
2018-08-28T17:05:48.777Z,49.20
2018-08-28T17:08:17.463Z,48.70
2018-08-28T17:10:47.066Z,48.70
2018-08-28T17:13:15.891Z,49.40
2018-08-28T17:15:44.272Z,49.40
2018-08-28T17:18:12.665Z,49.80
2018-08-28T17:20:41.076Z,49.50
2018-08-28T17:23:10.137Z,49.60
2018-08-28T17:25:38.546Z,49.60
2018-08-28T17:28:08.356Z,49.60
2018-08-28T17:30:37.042Z,49.70
2018-08-28T17:33:05.965Z,50.20
2018-08-28T17:35:34.392Z,49.70
2018-08-28T17:38:02.999Z,50.30
2018-08-28T17:40:31.512Z,50.50
2018-08-28T17:42:59.861Z,50.70
2018-08-28T17:45:30.393Z,51.00
2018-08-28T17:47:58.877Z,51.30
2018-08-28T17:50:27.535Z,51.50
2018-08-28T17:52:56.449Z,51.50
2018-08-28T17:55:25.011Z,51.30
2018-08-28T17:57:53.504Z,51.80
2018-08-28T18:00:22.071Z,52.00
2018-08-28T18:02:50.634Z,51.90
2018-08-28T18:05:19.322Z,51.90
2018-08-28T18:07:48.050Z,52.10
2018-08-28T18:10:16.846Z,52.10
2018-08-28T18:12:45.835Z,52.20
2018-08-28T18:15:14.456Z,52.30
2018-08-28T18:17:42.902Z,52.60
2018-08-28T18:20:11.941Z,52.80
2018-08-28T18:22:41.632Z,53.10
2018-08-28T18:25:11.169Z,53.30
2018-08-28T18:27:39.632Z,53.50
2018-08-28T18:30:08.894Z,53.60
2018-08-28T18:32:37.597Z,54.00
2018-08-28T18:35:06.587Z,54.10
2018-08-28T18:37:35.111Z,54.30
2018-08-28T18:40:03.710Z,54.70
2018-08-28T18:42:32.134Z,55.10
2018-08-28T18:45:00.548Z,55.50
2018-08-28T18:47:28.949Z,55.60
2018-08-28T18:49:57.521Z,55.60
2018-08-28T18:52:25.972Z,55.80
2018-08-28T18:54:54.360Z,55.90
2018-08-28T18:57:23.798Z,55.90
2018-08-28T18:59:52.145Z,55.90
2018-08-28T19:02:20.570Z,55.90
2018-08-28T19:04:49.041Z,56.10
2018-08-28T19:07:18.222Z,56.40
2018-08-28T19:09:47.168Z,56.40
2018-08-28T19:12:16.279Z,56.50
2018-08-28T19:14:44.853Z,56.50
2018-08-28T19:17:15.035Z,57.00
2018-08-28T19:19:43.648Z,57.20
2018-08-28T19:22:13.023Z,57.30
2018-08-28T19:24:41.738Z,57.40
2018-08-28T19:27:10.862Z,57.50
2018-08-28T19:29:39.230Z,57.40
2018-08-28T19:32:07.922Z,57.80
2018-08-28T19:34:36.376Z,57.90
2018-08-28T19:37:07.329Z,58.20
2018-08-28T19:39:39.073Z,58.50
2018-08-28T19:42:07.628Z,58.50
2018-08-28T19:44:36.316Z,58.50
2018-08-28T19:47:05.190Z,58.80
2018-08-28T19:49:34.043Z,58.90
2018-08-28T19:52:02.501Z,59.10
2018-08-28T19:54:31.112Z,59.20
2018-08-28T19:56:59.640Z,59.50
2018-08-28T19:59:28.254Z,59.60
2018-08-28T20:01:57.636Z,59.90
2018-08-28T20:04:26.171Z,60.30
2018-08-28T20:06:54.997Z,60.60
2018-08-28T20:09:23.567Z,60.70
2018-08-28T20:11:52.187Z,60.70
2018-08-28T20:14:20.582Z,60.80
2018-08-28T20:16:49.267Z,61.30
2018-08-28T20:19:18.339Z,61.60
2018-08-28T20:21:47.314Z,61.80
2018-08-28T20:24:16.350Z,61.80
2018-08-28T20:26:45.208Z,61.70
2018-08-28T20:29:14.096Z,61.70
2018-08-28T20:31:42.487Z,61.80
2018-08-28T20:34:10.900Z,62.60
2018-08-28T20:36:39.634Z,62.70
2018-08-28T20:39:08.067Z,62.70
2018-08-28T20:41:37.291Z,61.40
2018-08-28T20:44:06.000Z,61.40
2018-08-28T20:46:34.435Z,61.50
2018-08-28T20:49:03.111Z,62.00
2018-08-28T20:51:31.653Z,62.70
2018-08-28T20:54:00.616Z,62.80
2018-08-28T20:56:29.255Z,63.10
2018-08-28T20:58:58.135Z,63.40
2018-08-28T21:01:26.774Z,63.60
2018-08-28T21:03:55.445Z,63.40
2018-08-28T21:06:25.072Z,64.20
2018-08-28T21:08:55.052Z,63.70
2018-08-28T21:11:30.236Z,63.70
2018-08-28T21:13:58.985Z,64.10
2018-08-28T21:16:30.470Z,64.20
2018-08-28T21:19:00.498Z,65.40
2018-08-28T21:21:29.213Z,67.30
2018-08-28T21:23:58.194Z,66.50
2018-08-28T21:26:27.272Z,66.10
2018-08-28T21:28:56.007Z,66.30
2018-08-28T21:31:26.187Z,66.90
2018-08-28T21:33:54.976Z,67.60
2018-08-28T21:36:23.356Z,68.20
2018-08-28T21:38:51.898Z,67.60
2018-08-28T21:41:20.622Z,68.80
2018-08-28T21:43:49.417Z,69.30
2018-08-28T21:46:17.978Z,69.20
2018-08-28T21:48:46.713Z,69.00
2018-08-28T21:51:15.783Z,69.00
2018-08-28T21:53:44.174Z,68.90
2018-08-28T21:56:12.759Z,68.80
2018-08-28T21:58:41.180Z,69.00
2018-08-28T22:01:10.683Z,69.10
2018-08-28T22:03:40.512Z,69.20
2018-08-28T22:06:14.211Z,69.50
2018-08-28T22:08:42.710Z,69.60
2018-08-28T22:11:11.334Z,69.80
2018-08-28T22:13:39.862Z,70.00
2018-08-28T22:16:08.356Z,70.00
2018-08-28T22:18:37.044Z,70.60
2018-08-28T22:21:05.886Z,71.00
2018-08-28T22:23:34.248Z,70.80
2018-08-28T22:26:02.682Z,71.00
2018-08-28T22:28:31.095Z,70.90
2018-08-28T22:30:59.513Z,71.40
2018-08-28T22:33:28.077Z,72.20
2018-08-28T22:35:57.717Z,71.70
2018-08-28T22:38:26.545Z,72.00
2018-08-28T22:40:55.102Z,72.20
2018-08-28T22:43:24.179Z,72.40
2018-08-28T22:45:52.843Z,72.60
2018-08-28T22:48:21.498Z,73.20
2018-08-28T22:50:50.094Z,73.30
2018-08-28T22:53:18.784Z,73.80
2018-08-28T22:55:47.376Z,74.30
2018-08-28T22:58:15.866Z,75.20
2018-08-28T23:00:44.275Z,76.00
2018-08-28T23:03:13.720Z,75.90
2018-08-28T23:05:42.091Z,75.50
2018-08-28T23:08:10.473Z,77.10
2018-08-28T23:10:38.991Z,76.60
2018-08-28T23:13:07.536Z,76.20
2018-08-28T23:15:35.971Z,76.20
2018-08-28T23:18:04.563Z,76.60
2018-08-28T23:20:33.522Z,76.90
2018-08-28T23:23:01.971Z,77.20
2018-08-28T23:25:30.335Z,77.80
2018-08-28T23:27:58.663Z,77.70
2018-08-28T23:30:27.446Z,77.80
2018-08-28T23:32:55.856Z,78.00
2018-08-28T23:35:24.225Z,78.40
2018-08-28T23:37:52.573Z,78.90
2018-08-28T23:40:21.326Z,78.90
2018-08-28T23:42:49.711Z,78.50
2018-08-28T23:45:18.554Z,79.10
2018-08-28T23:47:46.994Z,78.70
2018-08-28T23:50:16.803Z,78.40
2018-08-28T23:52:45.442Z,78.00
2018-08-28T23:55:13.959Z,78.10
2018-08-28T23:57:42.325Z,78.50
